sensor_id;sensor_type;location;lat;lon;timestamp;P1;durP1;ratioP1;P2;durP2;ratioP2
22794;SDS011;11564;50.920;11.612;2023-05-10T00:00:41;2.37;;;2.17;;
22794;SDS011;11564;50.920;11.612;2023-05-10T00:03:07;3.00;;;2.80;;
22794;SDS011;11564;50.920;11.612;2023-05-10T00:05:33;3.00;;;2.50;;
22794;SDS011;11564;50.920;11.612;2023-05-10T00:07:58;2.73;;;2.40;;
22794;SDS011;11564;50.920;11.612;2023-05-10T00:10:24;5.97;;;2.70;;
22794;SDS011;11564;50.920;11.612;2023-05-10T00:12:50;2.43;;;2.30;;
22794;SDS011;11564;50.920;11.612;2023-05-10T00:15:15;2.83;;;2.50;;
22794;SDS011;11564;50.920;11.612;2023-05-10T00:17:41;3.47;;;2.77;;
22794;SDS011;11564;50.920;11.612;2023-05-10T00:20:06;2.57;;;2.37;;
22794;SDS011;11564;50.920;11.612;2023-05-10T00:22:32;2.53;;;2.43;;
22794;SDS011;11564;50.920;11.612;2023-05-10T00:24:58;4.60;;;2.23;;
22794;SDS011;11564;50.920;11.612;2023-05-10T00:27:24;4.73;;;2.70;;
22794;SDS011;11564;50.920;11.612;2023-05-10T00:29:50;3.10;;;2.80;;
22794;SDS011;11564;50.920;11.612;2023-05-10T00:32:15;5.20;;;3.17;;
22794;SDS011;11564;50.920;11.612;2023-05-10T00:34:41;2.50;;;2.30;;
22794;SDS011;11564;50.920;11.612;2023-05-10T00:37:07;4.60;;;2.43;;
22794;SDS011;11564;50.920;11.612;2023-05-10T00:39:33;3.03;;;2.50;;
22794;SDS011;11564;50.920;11.612;2023-05-10T00:41:58;3.70;;;2.30;;
22794;SDS011;11564;50.920;11.612;2023-05-10T00:44:25;2.90;;;2.70;;
22794;SDS011;11564;50.920;11.612;2023-05-10T00:46:50;2.97;;;2.77;;
22794;SDS011;11564;50.920;11.612;2023-05-10T00:49:17;3.07;;;2.63;;
22794;SDS011;11564;50.920;11.612;2023-05-10T00:51:42;3.00;;;2.70;;
22794;SDS011;11564;50.920;11.612;2023-05-10T00:54:13;2.97;;;2.77;;
22794;SDS011;11564;50.920;11.612;2023-05-10T00:56:40;8.80;;;2.77;;
22794;SDS011;11564;50.920;11.612;2023-05-10T00:59:06;7.33;;;3.40;;
22794;SDS011;11564;50.920;11.612;2023-05-10T01:01:33;4.10;;;2.60;;
22794;SDS011;11564;50.920;11.612;2023-05-10T01:04:00;3.20;;;3.00;;
22794;SDS011;11564;50.920;11.612;2023-05-10T01:06:26;2.23;;;2.13;;
22794;SDS011;11564;50.920;11.612;2023-05-10T01:08:52;2.80;;;2.60;;
22794;SDS011;11564;50.920;11.612;2023-05-10T01:11:18;2.30;;;2.20;;
22794;SDS011;11564;50.920;11.612;2023-05-10T01:13:44;3.40;;;2.90;;
22794;SDS011;11564;50.920;11.612;2023-05-10T01:16:15;2.93;;;2.63;;
22794;SDS011;11564;50.920;11.612;2023-05-10T01:18:41;3.77;;;3.00;;
22794;SDS011;11564;50.920;11.612;2023-05-10T01:27:19;2.90;;;2.70;;
22794;SDS011;11564;50.920;11.612;2023-05-10T01:38:07;3.17;;;2.90;;
22794;SDS011;11564;50.920;11.612;2023-05-10T01:40:47;5.53;;;2.83;;
22794;SDS011;11564;50.920;11.612;2023-05-10T01:43:41;3.67;;;2.80;;
22794;SDS011;11564;50.920;11.612;2023-05-10T01:46:17;2.70;;;2.50;;
22794;SDS011;11564;50.920;11.612;2023-05-10T01:48:51;3.83;;;2.60;;
22794;SDS011;11564;50.920;11.612;2023-05-10T01:51:30;2.30;;;2.20;;
22794;SDS011;11564;50.920;11.612;2023-05-10T01:54:02;3.23;;;2.83;;
22794;SDS011;11564;50.920;11.612;2023-05-10T01:56:30;4.37;;;2.70;;
22794;SDS011;11564;50.920;11.612;2023-05-10T01:58:59;3.43;;;2.27;;
22794;SDS011;11564;50.920;11.612;2023-05-10T02:01:29;3.10;;;2.47;;
22794;SDS011;11564;50.920;11.612;2023-05-10T02:03:56;4.20;;;3.20;;
22794;SDS011;11564;50.920;11.612;2023-05-10T02:06:23;7.70;;;3.03;;
22794;SDS011;11564;50.920;11.612;2023-05-10T02:08:50;3.67;;;2.90;;
22794;SDS011;11564;50.920;11.612;2023-05-10T02:11:18;5.37;;;2.90;;
22794;SDS011;11564;50.920;11.612;2023-05-10T02:13:46;2.47;;;2.27;;
22794;SDS011;11564;50.920;11.612;2023-05-10T02:16:14;3.17;;;2.83;;
22794;SDS011;11564;50.920;11.612;2023-05-10T02:18:41;3.70;;;3.10;;
22794;SDS011;11564;50.920;11.612;2023-05-10T02:21:08;2.93;;;2.77;;
22794;SDS011;11564;50.920;11.612;2023-05-10T02:23:36;4.60;;;2.97;;
22794;SDS011;11564;50.920;11.612;2023-05-10T02:26:03;3.53;;;3.27;;
22794;SDS011;11564;50.920;11.612;2023-05-10T02:28:30;2.83;;;2.63;;
22794;SDS011;11564;50.920;11.612;2023-05-10T02:30:58;2.40;;;2.20;;
22794;SDS011;11564;50.920;11.612;2023-05-10T02:33:24;2.90;;;2.70;;
22794;SDS011;11564;50.920;11.612;2023-05-10T02:35:50;4.43;;;3.10;;
22794;SDS011;11564;50.920;11.612;2023-05-10T02:38:17;6.37;;;3.17;;
22794;SDS011;11564;50.920;11.612;2023-05-10T02:40:45;3.40;;;3.10;;
22794;SDS011;11564;50.920;11.612;2023-05-10T02:43:12;3.63;;;3.07;;
22794;SDS011;11564;50.920;11.612;2023-05-10T02:45:40;3.77;;;2.53;;
22794;SDS011;11564;50.920;11.612;2023-05-10T02:48:08;2.20;;;2.10;;
22794;SDS011;11564;50.920;11.612;2023-05-10T02:50:33;2.90;;;2.53;;
22794;SDS011;11564;50.920;11.612;2023-05-10T02:53:03;2.90;;;2.70;;
22794;SDS011;11564;50.920;11.612;2023-05-10T02:55:40;3.23;;;2.90;;
22794;SDS011;11564;50.920;11.612;2023-05-10T02:58:08;4.07;;;2.97;;
22794;SDS011;11564;50.920;11.612;2023-05-10T03:00:34;5.40;;;3.20;;
22794;SDS011;11564;50.920;11.612;2023-05-10T03:03:01;4.03;;;3.50;;
22794;SDS011;11564;50.920;11.612;2023-05-10T03:05:27;5.03;;;2.83;;
22794;SDS011;11564;50.920;11.612;2023-05-10T03:07:52;3.47;;;2.53;;
22794;SDS011;11564;50.920;11.612;2023-05-10T03:10:19;2.60;;;2.40;;
22794;SDS011;11564;50.920;11.612;2023-05-10T03:16:04;2.70;;;2.60;;
22794;SDS011;11564;50.920;11.612;2023-05-10T03:21:20;2.50;;;2.40;;
22794;SDS011;11564;50.920;11.612;2023-05-10T03:23:59;4.17;;;3.87;;
22794;SDS011;11564;50.920;11.612;2023-05-10T03:26:30;3.30;;;2.30;;
22794;SDS011;11564;50.920;11.612;2023-05-10T03:28:56;4.53;;;2.83;;
22794;SDS011;11564;50.920;11.612;2023-05-10T03:31:24;2.70;;;2.50;;
22794;SDS011;11564;50.920;11.612;2023-05-10T03:33:50;2.97;;;2.77;;
22794;SDS011;11564;50.920;11.612;2023-05-10T03:36:17;2.60;;;2.50;;
22794;SDS011;11564;50.920;11.612;2023-05-10T03:38:43;3.13;;;2.90;;
22794;SDS011;11564;50.920;11.612;2023-05-10T03:41:09;3.23;;;3.03;;
22794;SDS011;11564;50.920;11.612;2023-05-10T03:43:35;4.83;;;3.23;;
22794;SDS011;11564;50.920;11.612;2023-05-10T03:46:02;2.70;;;2.60;;
22794;SDS011;11564;50.920;11.612;2023-05-10T03:48:28;2.83;;;2.63;;
22794;SDS011;11564;50.920;11.612;2023-05-10T03:50:54;22.47;;;2.70;;
22794;SDS011;11564;50.920;11.612;2023-05-10T03:53:19;5.20;;;3.53;;
22794;SDS011;11564;50.920;11.612;2023-05-10T03:55:45;3.30;;;3.10;;
22794;SDS011;11564;50.920;11.612;2023-05-10T03:58:11;3.33;;;3.13;;
22794;SDS011;11564;50.920;11.612;2023-05-10T04:00:37;6.50;;;2.90;;
22794;SDS011;11564;50.920;11.612;2023-05-10T04:03:08;3.07;;;2.77;;
22794;SDS011;11564;50.920;11.612;2023-05-10T04:05:34;3.30;;;3.10;;
22794;SDS011;11564;50.920;11.612;2023-05-10T04:08:00;3.70;;;2.67;;
22794;SDS011;11564;50.920;11.612;2023-05-10T04:10:26;3.63;;;3.40;;
22794;SDS011;11564;50.920;11.612;2023-05-10T04:12:51;3.30;;;3.00;;
22794;SDS011;11564;50.920;11.612;2023-05-10T04:15:17;3.23;;;3.03;;
22794;SDS011;11564;50.920;11.612;2023-05-10T04:17:42;3.63;;;2.97;;
22794;SDS011;11564;50.920;11.612;2023-05-10T04:20:08;2.60;;;2.40;;
22794;SDS011;11564;50.920;11.612;2023-05-10T04:22:34;2.97;;;2.40;;
22794;SDS011;11564;50.920;11.612;2023-05-10T04:25:00;3.80;;;3.37;;
22794;SDS011;11564;50.920;11.612;2023-05-10T04:27:26;2.80;;;2.60;;
22794;SDS011;11564;50.920;11.612;2023-05-10T04:29:52;3.37;;;3.03;;
22794;SDS011;11564;50.920;11.612;2023-05-10T04:32:17;3.70;;;3.37;;
22794;SDS011;11564;50.920;11.612;2023-05-10T04:34:43;3.10;;;2.90;;
22794;SDS011;11564;50.920;11.612;2023-05-10T04:37:09;3.20;;;2.80;;
22794;SDS011;11564;50.920;11.612;2023-05-10T04:39:35;3.83;;;3.63;;
22794;SDS011;11564;50.920;11.612;2023-05-10T04:42:01;3.07;;;2.87;;
22794;SDS011;11564;50.920;11.612;2023-05-10T04:44:28;4.80;;;2.70;;
22794;SDS011;11564;50.920;11.612;2023-05-10T04:46:54;3.17;;;2.97;;
22794;SDS011;11564;50.920;11.612;2023-05-10T04:49:20;2.83;;;2.50;;
22794;SDS011;11564;50.920;11.612;2023-05-10T04:51:46;4.23;;;2.30;;
22794;SDS011;11564;50.920;11.612;2023-05-10T04:54:12;5.40;;;2.60;;
22794;SDS011;11564;50.920;11.612;2023-05-10T04:56:37;2.80;;;2.60;;
22794;SDS011;11564;50.920;11.612;2023-05-10T04:59:03;2.87;;;2.67;;
22794;SDS011;11564;50.920;11.612;2023-05-10T05:01:29;4.10;;;2.80;;
22794;SDS011;11564;50.920;11.612;2023-05-10T05:03:54;3.90;;;3.60;;
22794;SDS011;11564;50.920;11.612;2023-05-10T05:06:20;3.47;;;3.23;;
22794;SDS011;11564;50.920;11.612;2023-05-10T05:08:46;3.23;;;2.93;;
22794;SDS011;11564;50.920;11.612;2023-05-10T05:11:11;4.70;;;2.77;;
22794;SDS011;11564;50.920;11.612;2023-05-10T05:13:37;6.30;;;3.23;;
22794;SDS011;11564;50.920;11.612;2023-05-10T05:16:03;8.43;;;2.83;;
22794;SDS011;11564;50.920;11.612;2023-05-10T05:18:30;4.10;;;3.10;;
22794;SDS011;11564;50.920;11.612;2023-05-10T05:20:55;5.43;;;3.33;;
22794;SDS011;11564;50.920;11.612;2023-05-10T05:23:21;5.63;;;3.50;;
22794;SDS011;11564;50.920;11.612;2023-05-10T05:25:49;4.67;;;2.67;;
22794;SDS011;11564;50.920;11.612;2023-05-10T05:28:19;7.23;;;3.03;;
22794;SDS011;11564;50.920;11.612;2023-05-10T05:30:45;3.40;;;3.20;;
22794;SDS011;11564;50.920;11.612;2023-05-10T05:33:11;5.87;;;3.40;;
22794;SDS011;11564;50.920;11.612;2023-05-10T05:35:38;3.17;;;2.97;;
22794;SDS011;11564;50.920;11.612;2023-05-10T05:38:03;6.23;;;3.33;;
22794;SDS011;11564;50.920;11.612;2023-05-10T05:40:29;3.63;;;2.93;;
22794;SDS011;11564;50.920;11.612;2023-05-10T05:42:55;3.70;;;3.30;;
22794;SDS011;11564;50.920;11.612;2023-05-10T05:45:20;3.50;;;3.20;;
22794;SDS011;11564;50.920;11.612;2023-05-10T05:47:46;7.87;;;3.60;;
22794;SDS011;11564;50.920;11.612;2023-05-10T05:50:12;6.03;;;3.00;;
22794;SDS011;11564;50.920;11.612;2023-05-10T05:52:37;3.43;;;3.23;;
22794;SDS011;11564;50.920;11.612;2023-05-10T05:55:03;4.60;;;3.37;;
22794;SDS011;11564;50.920;11.612;2023-05-10T05:57:29;3.53;;;2.90;;
22794;SDS011;11564;50.920;11.612;2023-05-10T05:59:55;3.80;;;3.60;;
22794;SDS011;11564;50.920;11.612;2023-05-10T06:02:21;4.30;;;3.30;;
22794;SDS011;11564;50.920;11.612;2023-05-10T06:04:46;3.20;;;2.73;;
22794;SDS011;11564;50.920;11.612;2023-05-10T06:07:12;3.60;;;3.40;;
22794;SDS011;11564;50.920;11.612;2023-05-10T06:09:38;3.60;;;3.30;;
22794;SDS011;11564;50.920;11.612;2023-05-10T06:12:03;3.97;;;3.37;;
22794;SDS011;11564;50.920;11.612;2023-05-10T06:14:30;4.07;;;3.47;;
22794;SDS011;11564;50.920;11.612;2023-05-10T06:16:55;3.23;;;3.03;;
22794;SDS011;11564;50.920;11.612;2023-05-10T06:19:21;4.07;;;3.70;;
22794;SDS011;11564;50.920;11.612;2023-05-10T06:21:46;2.80;;;2.60;;
22794;SDS011;11564;50.920;11.612;2023-05-10T06:24:12;3.90;;;3.30;;
22794;SDS011;11564;50.920;11.612;2023-05-10T06:26:38;6.63;;;3.40;;
22794;SDS011;11564;50.920;11.612;2023-05-10T06:29:03;2.90;;;2.73;;
22794;SDS011;11564;50.920;11.612;2023-05-10T06:31:29;3.03;;;2.83;;
22794;SDS011;11564;50.920;11.612;2023-05-10T06:33:54;6.50;;;3.77;;
22794;SDS011;11564;50.920;11.612;2023-05-10T06:36:20;6.50;;;3.30;;
22794;SDS011;11564;50.920;11.612;2023-05-10T06:38:46;9.47;;;2.97;;
22794;SDS011;11564;50.920;11.612;2023-05-10T06:41:12;3.60;;;3.30;;
22794;SDS011;11564;50.920;11.612;2023-05-10T06:43:38;3.30;;;3.10;;
22794;SDS011;11564;50.920;11.612;2023-05-10T06:46:06;4.80;;;3.13;;
22794;SDS011;11564;50.920;11.612;2023-05-10T06:48:32;3.47;;;3.17;;
22794;SDS011;11564;50.920;11.612;2023-05-10T06:50:57;4.07;;;3.77;;
22794;SDS011;11564;50.920;11.612;2023-05-10T06:53:23;10.83;;;3.40;;
22794;SDS011;11564;50.920;11.612;2023-05-10T06:55:49;3.60;;;3.30;;
22794;SDS011;11564;50.920;11.612;2023-05-10T06:58:14;5.40;;;3.33;;
22794;SDS011;11564;50.920;11.612;2023-05-10T07:00:40;5.30;;;3.90;;
22794;SDS011;11564;50.920;11.612;2023-05-10T07:03:08;3.90;;;3.50;;
22794;SDS011;11564;50.920;11.612;2023-05-10T07:05:34;4.60;;;3.73;;
22794;SDS011;11564;50.920;11.612;2023-05-10T07:08:00;6.00;;;3.70;;
22794;SDS011;11564;50.920;11.612;2023-05-10T07:10:26;4.00;;;3.70;;
22794;SDS011;11564;50.920;11.612;2023-05-10T07:12:52;4.40;;;3.60;;
22794;SDS011;11564;50.920;11.612;2023-05-10T07:15:17;5.00;;;3.67;;
22794;SDS011;11564;50.920;11.612;2023-05-10T07:17:43;3.60;;;3.30;;
22794;SDS011;11564;50.920;11.612;2023-05-10T07:20:09;3.83;;;3.63;;
22794;SDS011;11564;50.920;11.612;2023-05-10T07:22:35;7.90;;;4.17;;
22794;SDS011;11564;50.920;11.612;2023-05-10T07:25:01;3.17;;;2.97;;
22794;SDS011;11564;50.920;11.612;2023-05-10T07:27:27;4.90;;;3.20;;
22794;SDS011;11564;50.920;11.612;2023-05-10T07:29:52;5.63;;;4.00;;
22794;SDS011;11564;50.920;11.612;2023-05-10T07:32:19;12.47;;;4.10;;
22794;SDS011;11564;50.920;11.612;2023-05-10T07:34:45;11.50;;;3.40;;
22794;SDS011;11564;50.920;11.612;2023-05-10T07:37:11;6.00;;;4.30;;
22794;SDS011;11564;50.920;11.612;2023-05-10T07:39:36;4.37;;;3.97;;
22794;SDS011;11564;50.920;11.612;2023-05-10T07:42:02;3.90;;;3.70;;
22794;SDS011;11564;50.920;11.612;2023-05-10T07:44:28;4.27;;;3.97;;
22794;SDS011;11564;50.920;11.612;2023-05-10T07:46:54;4.63;;;4.30;;
22794;SDS011;11564;50.920;11.612;2023-05-10T07:49:20;7.33;;;4.00;;
22794;SDS011;11564;50.920;11.612;2023-05-10T07:51:46;6.83;;;4.40;;
22794;SDS011;11564;50.920;11.612;2023-05-10T07:54:12;7.20;;;4.33;;
22794;SDS011;11564;50.920;11.612;2023-05-10T07:56:37;5.50;;;4.30;;
22794;SDS011;11564;50.920;11.612;2023-05-10T07:59:04;6.07;;;4.37;;
22794;SDS011;11564;50.920;11.612;2023-05-10T08:01:31;5.53;;;4.50;;
22794;SDS011;11564;50.920;11.612;2023-05-10T08:03:58;4.27;;;3.97;;
22794;SDS011;11564;50.920;11.612;2023-05-10T08:06:24;4.73;;;4.00;;
22794;SDS011;11564;50.920;11.612;2023-05-10T08:08:55;4.40;;;4.00;;
22794;SDS011;11564;50.920;11.612;2023-05-10T08:11:21;5.67;;;4.70;;
22794;SDS011;11564;50.920;11.612;2023-05-10T08:13:47;3.87;;;3.67;;
22794;SDS011;11564;50.920;11.612;2023-05-10T08:16:14;5.10;;;4.37;;
22794;SDS011;11564;50.920;11.612;2023-05-10T08:18:40;4.40;;;3.97;;
22794;SDS011;11564;50.920;11.612;2023-05-10T08:21:06;6.50;;;4.30;;
22794;SDS011;11564;50.920;11.612;2023-05-10T08:23:32;3.93;;;3.63;;
22794;SDS011;11564;50.920;11.612;2023-05-10T08:25:57;4.90;;;4.40;;
22794;SDS011;11564;50.920;11.612;2023-05-10T08:28:25;7.43;;;3.93;;
22794;SDS011;11564;50.920;11.612;2023-05-10T08:30:50;4.17;;;3.87;;
22794;SDS011;11564;50.920;11.612;2023-05-10T08:33:17;4.20;;;3.87;;
22794;SDS011;11564;50.920;11.612;2023-05-10T08:35:43;4.30;;;3.90;;
22794;SDS011;11564;50.920;11.612;2023-05-10T08:38:09;4.30;;;3.90;;
22794;SDS011;11564;50.920;11.612;2023-05-10T08:40:36;4.30;;;3.90;;
22794;SDS011;11564;50.920;11.612;2023-05-10T08:43:06;3.60;;;3.30;;
22794;SDS011;11564;50.920;11.612;2023-05-10T08:45:38;5.33;;;4.50;;
22794;SDS011;11564;50.920;11.612;2023-05-10T08:48:05;3.83;;;3.53;;
22794;SDS011;11564;50.920;11.612;2023-05-10T08:50:33;4.63;;;4.13;;
22794;SDS011;11564;50.920;11.612;2023-05-10T08:53:01;5.10;;;4.00;;
22794;SDS011;11564;50.920;11.612;2023-05-10T08:55:31;5.83;;;3.83;;
22794;SDS011;11564;50.920;11.612;2023-05-10T08:57:58;3.60;;;3.40;;
22794;SDS011;11564;50.920;11.612;2023-05-10T09:00:25;3.97;;;3.67;;
22794;SDS011;11564;50.920;11.612;2023-05-10T09:02:51;4.37;;;3.90;;
22794;SDS011;11564;50.920;11.612;2023-05-10T09:05:17;4.37;;;4.07;;
22794;SDS011;11564;50.920;11.612;2023-05-10T09:07:43;9.37;;;3.80;;
22794;SDS011;11564;50.920;11.612;2023-05-10T09:10:09;4.47;;;4.10;;
22794;SDS011;11564;50.920;11.612;2023-05-10T09:12:36;5.27;;;3.63;;
22794;SDS011;11564;50.920;11.612;2023-05-10T09:15:02;3.80;;;3.50;;
22794;SDS011;11564;50.920;11.612;2023-05-10T09:17:30;4.00;;;3.67;;
22794;SDS011;11564;50.920;11.612;2023-05-10T09:20:02;4.20;;;3.80;;
22794;SDS011;11564;50.920;11.612;2023-05-10T09:22:29;3.93;;;3.63;;
22794;SDS011;11564;50.920;11.612;2023-05-10T09:25:05;3.70;;;3.40;;
22794;SDS011;11564;50.920;11.612;2023-05-10T09:27:41;5.97;;;3.60;;
22794;SDS011;11564;50.920;11.612;2023-05-10T09:30:10;4.00;;;3.53;;
22794;SDS011;11564;50.920;11.612;2023-05-10T09:32:41;3.40;;;3.20;;
22794;SDS011;11564;50.920;11.612;2023-05-10T09:35:08;4.10;;;3.70;;
22794;SDS011;11564;50.920;11.612;2023-05-10T09:37:45;3.50;;;3.30;;
22794;SDS011;11564;50.920;11.612;2023-05-10T09:40:18;3.50;;;3.30;;
22794;SDS011;11564;50.920;11.612;2023-05-10T09:42:53;3.97;;;3.67;;
22794;SDS011;11564;50.920;11.612;2023-05-10T09:45:19;4.40;;;4.10;;
22794;SDS011;11564;50.920;11.612;2023-05-10T09:47:46;4.30;;;4.00;;
22794;SDS011;11564;50.920;11.612;2023-05-10T09:50:11;3.60;;;3.30;;
22794;SDS011;11564;50.920;11.612;2023-05-10T09:52:47;4.00;;;3.43;;
22794;SDS011;11564;50.920;11.612;2023-05-10T09:55:18;4.00;;;3.63;;
22794;SDS011;11564;50.920;11.612;2023-05-10T09:57:46;3.77;;;3.00;;
22794;SDS011;11564;50.920;11.612;2023-05-10T10:00:17;4.03;;;3.60;;
22794;SDS011;11564;50.920;11.612;2023-05-10T10:02:44;3.17;;;2.97;;
22794;SDS011;11564;50.920;11.612;2023-05-10T10:05:19;7.70;;;3.87;;
22794;SDS011;11564;50.920;11.612;2023-05-10T10:07:45;4.07;;;3.80;;
22794;SDS011;11564;50.920;11.612;2023-05-10T10:10:11;4.80;;;3.57;;
22794;SDS011;11564;50.920;11.612;2023-05-10T10:12:39;3.83;;;3.40;;
22794;SDS011;11564;50.920;11.612;2023-05-10T10:15:06;4.07;;;3.70;;
22794;SDS011;11564;50.920;11.612;2023-05-10T10:17:33;3.50;;;3.20;;
22794;SDS011;11564;50.920;11.612;2023-05-10T10:20:02;3.40;;;3.20;;
22794;SDS011;11564;50.920;11.612;2023-05-10T10:22:28;2.83;;;2.63;;
22794;SDS011;11564;50.920;11.612;2023-05-10T10:24:54;4.20;;;2.77;;
22794;SDS011;11564;50.920;11.612;2023-05-10T10:32:31;2.93;;;2.73;;
22794;SDS011;11564;50.920;11.612;2023-05-10T10:35:07;3.83;;;3.40;;
22794;SDS011;11564;50.920;11.612;2023-05-10T10:37:47;8.10;;;3.00;;
22794;SDS011;11564;50.920;11.612;2023-05-10T10:40:28;3.80;;;2.73;;
22794;SDS011;11564;50.920;11.612;2023-05-10T10:42:55;3.43;;;2.97;;
22794;SDS011;11564;50.920;11.612;2023-05-10T10:45:22;2.60;;;2.40;;
22794;SDS011;11564;50.920;11.612;2023-05-10T10:47:49;3.00;;;2.80;;
22794;SDS011;11564;50.920;11.612;2023-05-10T10:50:44;3.27;;;3.07;;
22794;SDS011;11564;50.920;11.612;2023-05-10T10:53:11;3.03;;;2.83;;
22794;SDS011;11564;50.920;11.612;2023-05-10T10:55:45;3.07;;;2.87;;
22794;SDS011;11564;50.920;11.612;2023-05-10T10:58:28;4.73;;;2.50;;
22794;SDS011;11564;50.920;11.612;2023-05-10T11:01:14;2.50;;;2.30;;
22794;SDS011;11564;50.920;11.612;2023-05-10T11:03:41;3.00;;;2.80;;
22794;SDS011;11564;50.920;11.612;2023-05-10T11:06:40;2.60;;;2.40;;
22794;SDS011;11564;50.920;11.612;2023-05-10T11:09:07;2.37;;;2.27;;
22794;SDS011;11564;50.920;11.612;2023-05-10T11:11:37;3.27;;;2.70;;
22794;SDS011;11564;50.920;11.612;2023-05-10T11:14:17;2.40;;;2.20;;
22794;SDS011;11564;50.920;11.612;2023-05-10T11:16:46;2.57;;;2.37;;
22794;SDS011;11564;50.920;11.612;2023-05-10T11:19:12;2.80;;;2.60;;
22794;SDS011;11564;50.920;11.612;2023-05-10T11:24:14;3.23;;;1.90;;
22794;SDS011;11564;50.920;11.612;2023-05-10T11:26:42;2.30;;;2.20;;
22794;SDS011;11564;50.920;11.612;2023-05-10T11:29:07;2.70;;;2.13;;
22794;SDS011;11564;50.920;11.612;2023-05-10T11:31:34;2.27;;;2.07;;
22794;SDS011;11564;50.920;11.612;2023-05-10T11:34:06;1.90;;;1.80;;
22794;SDS011;11564;50.920;11.612;2023-05-10T11:36:33;1.10;;;1.00;;
22794;SDS011;11564;50.920;11.612;2023-05-10T11:38:59;0.97;;;0.70;;
22794;SDS011;11564;50.920;11.612;2023-05-10T11:41:26;1.53;;;0.70;;
22794;SDS011;11564;50.920;11.612;2023-05-10T11:43:53;0.63;;;0.50;;
22794;SDS011;11564;50.920;11.612;2023-05-10T11:46:20;0.50;;;0.40;;
22794;SDS011;11564;50.920;11.612;2023-05-10T11:48:49;0.80;;;0.43;;
22794;SDS011;11564;50.920;11.612;2023-05-10T11:51:19;0.77;;;0.40;;
22794;SDS011;11564;50.920;11.612;2023-05-10T11:53:49;0.60;;;0.50;;
22794;SDS011;11564;50.920;11.612;2023-05-10T11:56:16;0.60;;;0.40;;
22794;SDS011;11564;50.920;11.612;2023-05-10T11:58:41;0.63;;;0.50;;
22794;SDS011;11564;50.920;11.612;2023-05-10T12:01:07;0.80;;;0.50;;
22794;SDS011;11564;50.920;11.612;2023-05-10T12:03:34;0.60;;;0.40;;
22794;SDS011;11564;50.920;11.612;2023-05-10T12:06:00;3.13;;;0.70;;
22794;SDS011;11564;50.920;11.612;2023-05-10T12:08:27;0.60;;;0.40;;
22794;SDS011;11564;50.920;11.612;2023-05-10T12:11:02;1.50;;;0.30;;
22794;SDS011;11564;50.920;11.612;2023-05-10T12:13:31;0.57;;;0.40;;
22794;SDS011;11564;50.920;11.612;2023-05-10T12:15:57;1.10;;;0.50;;
22794;SDS011;11564;50.920;11.612;2023-05-10T12:18:24;0.53;;;0.47;;
22794;SDS011;11564;50.920;11.612;2023-05-10T12:20:51;2.77;;;0.40;;
22794;SDS011;11564;50.920;11.612;2023-05-10T12:23:18;5.10;;;0.60;;
22794;SDS011;11564;50.920;11.612;2023-05-10T12:25:45;3.30;;;0.47;;
22794;SDS011;11564;50.920;11.612;2023-05-10T12:28:11;0.60;;;0.50;;
22794;SDS011;11564;50.920;11.612;2023-05-10T12:30:36;0.60;;;0.50;;
22794;SDS011;11564;50.920;11.612;2023-05-10T12:33:13;0.60;;;0.47;;
22794;SDS011;11564;50.920;11.612;2023-05-10T12:35:46;0.60;;;0.53;;
22794;SDS011;11564;50.920;11.612;2023-05-10T12:38:32;1.20;;;1.00;;
22794;SDS011;11564;50.920;11.612;2023-05-10T12:41:04;0.87;;;0.63;;
22794;SDS011;11564;50.920;11.612;2023-05-10T12:43:37;0.90;;;0.70;;
22794;SDS011;11564;50.920;11.612;2023-05-10T12:46:07;0.57;;;0.40;;
22794;SDS011;11564;50.920;11.612;2023-05-10T12:48:35;1.27;;;0.50;;
22794;SDS011;11564;50.920;11.612;2023-05-10T12:51:01;1.60;;;0.50;;
22794;SDS011;11564;50.920;11.612;2023-05-10T12:53:28;0.80;;;0.60;;
22794;SDS011;11564;50.920;11.612;2023-05-10T12:55:54;4.30;;;0.47;;
22794;SDS011;11564;50.920;11.612;2023-05-10T12:58:20;1.00;;;0.47;;
22794;SDS011;11564;50.920;11.612;2023-05-10T13:00:46;1.83;;;0.60;;
22794;SDS011;11564;50.920;11.612;2023-05-10T13:03:11;1.73;;;0.50;;
22794;SDS011;11564;50.920;11.612;2023-05-10T13:05:37;0.80;;;0.40;;
22794;SDS011;11564;50.920;11.612;2023-05-10T13:08:03;1.30;;;0.50;;
22794;SDS011;11564;50.920;11.612;2023-05-10T13:10:29;0.70;;;0.70;;
22794;SDS011;11564;50.920;11.612;2023-05-10T13:12:56;0.60;;;0.50;;
22794;SDS011;11564;50.920;11.612;2023-05-10T13:15:22;1.17;;;0.57;;
22794;SDS011;11564;50.920;11.612;2023-05-10T13:17:48;2.40;;;0.70;;
22794;SDS011;11564;50.920;11.612;2023-05-10T13:20:14;1.13;;;0.60;;
22794;SDS011;11564;50.920;11.612;2023-05-10T13:22:40;0.70;;;0.67;;
22794;SDS011;11564;50.920;11.612;2023-05-10T13:25:07;0.80;;;0.80;;
22794;SDS011;11564;50.920;11.612;2023-05-10T13:27:33;1.40;;;0.80;;
22794;SDS011;11564;50.920;11.612;2023-05-10T13:29:58;0.80;;;0.80;;
22794;SDS011;11564;50.920;11.612;2023-05-10T13:32:24;0.90;;;0.70;;
22794;SDS011;11564;50.920;11.612;2023-05-10T13:34:50;1.07;;;0.73;;
22794;SDS011;11564;50.920;11.612;2023-05-10T13:37:17;0.70;;;0.70;;
22794;SDS011;11564;50.920;11.612;2023-05-10T13:39:42;0.90;;;0.90;;
22794;SDS011;11564;50.920;11.612;2023-05-10T13:42:08;1.17;;;0.90;;
22794;SDS011;11564;50.920;11.612;2023-05-10T13:44:34;0.80;;;0.73;;
22794;SDS011;11564;50.920;11.612;2023-05-10T13:47:01;0.80;;;0.80;;
22794;SDS011;11564;50.920;11.612;2023-05-10T13:49:26;2.90;;;1.10;;
22794;SDS011;11564;50.920;11.612;2023-05-10T13:51:52;1.43;;;0.70;;
22794;SDS011;11564;50.920;11.612;2023-05-10T13:54:17;0.80;;;0.70;;
22794;SDS011;11564;50.920;11.612;2023-05-10T13:56:44;0.80;;;0.80;;
22794;SDS011;11564;50.920;11.612;2023-05-10T13:59:12;3.73;;;1.00;;
22794;SDS011;11564;50.920;11.612;2023-05-10T14:01:38;2.07;;;0.90;;
22794;SDS011;11564;50.920;11.612;2023-05-10T14:04:05;1.00;;;1.00;;
22794;SDS011;11564;50.920;11.612;2023-05-10T14:06:31;0.80;;;0.80;;
22794;SDS011;11564;50.920;11.612;2023-05-10T14:08:57;3.23;;;0.60;;
22794;SDS011;11564;50.920;11.612;2023-05-10T14:11:23;1.33;;;0.77;;
22794;SDS011;11564;50.920;11.612;2023-05-10T14:13:48;2.93;;;0.67;;
22794;SDS011;11564;50.920;11.612;2023-05-10T14:16:14;0.80;;;0.67;;
22794;SDS011;11564;50.920;11.612;2023-05-10T14:18:39;0.67;;;0.60;;
22794;SDS011;11564;50.920;11.612;2023-05-10T14:21:05;0.67;;;0.67;;
22794;SDS011;11564;50.920;11.612;2023-05-10T14:23:31;0.73;;;0.73;;
22794;SDS011;11564;50.920;11.612;2023-05-10T14:25:57;0.60;;;0.50;;
22794;SDS011;11564;50.920;11.612;2023-05-10T14:28:22;0.63;;;0.47;;
22794;SDS011;11564;50.920;11.612;2023-05-10T14:30:49;1.30;;;0.40;;
22794;SDS011;11564;50.920;11.612;2023-05-10T14:33:16;0.63;;;0.53;;
22794;SDS011;11564;50.920;11.612;2023-05-10T14:35:42;0.70;;;0.30;;
22794;SDS011;11564;50.920;11.612;2023-05-10T14:38:07;0.80;;;0.40;;
22794;SDS011;11564;50.920;11.612;2023-05-10T14:40:33;0.60;;;0.30;;
22794;SDS011;11564;50.920;11.612;2023-05-10T14:42:59;0.70;;;0.40;;
22794;SDS011;11564;50.920;11.612;2023-05-10T14:45:25;0.60;;;0.30;;
22794;SDS011;11564;50.920;11.612;2023-05-10T14:47:51;0.50;;;0.30;;
22794;SDS011;11564;50.920;11.612;2023-05-10T14:50:17;0.60;;;0.47;;
22794;SDS011;11564;50.920;11.612;2023-05-10T14:52:43;0.80;;;0.50;;
22794;SDS011;11564;50.920;11.612;2023-05-10T14:55:09;0.50;;;0.30;;
22794;SDS011;11564;50.920;11.612;2023-05-10T14:57:34;0.73;;;0.40;;
22794;SDS011;11564;50.920;11.612;2023-05-10T15:00:00;1.53;;;0.30;;
22794;SDS011;11564;50.920;11.612;2023-05-10T15:02:26;1.53;;;0.50;;